createdAt,value
2018-03-15T00:00:11.314Z,5.65
2018-03-15T00:03:18.642Z,5.65
2018-03-15T00:06:21.798Z,5.69
2018-03-15T00:09:24.995Z,5.70
2018-03-15T00:12:28.197Z,5.66
2018-03-15T00:15:31.382Z,5.66
2018-03-15T00:18:34.596Z,5.59
2018-03-15T00:21:37.775Z,5.66
2018-03-15T00:24:40.960Z,5.70
2018-03-15T00:27:44.175Z,5.64
2018-03-15T00:30:47.345Z,5.63
2018-03-15T00:33:50.551Z,5.65
2018-03-15T00:36:53.726Z,5.56
2018-03-15T00:39:56.870Z,5.53
2018-03-15T00:43:00.164Z,5.51
2018-03-15T00:46:03.335Z,5.46
2018-03-15T00:49:06.528Z,5.41
2018-03-15T00:52:09.724Z,5.33
2018-03-15T00:55:13.013Z,5.34
2018-03-15T00:58:16.226Z,5.38
2018-03-15T01:01:19.412Z,5.41
2018-03-15T01:04:22.614Z,5.43
2018-03-15T01:07:25.838Z,5.46
2018-03-15T01:10:29.011Z,5.40
2018-03-15T01:13:32.141Z,5.40
2018-03-15T01:16:35.298Z,5.39
2018-03-15T01:19:38.469Z,5.38
2018-03-15T01:22:41.673Z,5.35
2018-03-15T01:25:44.873Z,5.33
2018-03-15T01:28:48.074Z,5.25
2018-03-15T01:31:51.205Z,5.15
2018-03-15T01:34:54.377Z,5.20
2018-03-15T01:37:57.567Z,5.19
2018-03-15T01:41:00.753Z,5.19
2018-03-15T01:44:03.946Z,5.12
2018-03-15T01:47:07.135Z,5.15
2018-03-15T01:50:10.331Z,5.08
2018-03-15T01:53:13.518Z,5.04
2018-03-15T01:56:16.714Z,5.02
2018-03-15T01:59:19.887Z,4.94
2018-03-15T02:02:23.111Z,5.06
2018-03-15T02:05:26.383Z,5.07
2018-03-15T02:08:29.527Z,4.98
2018-03-15T02:11:32.692Z,4.98
2018-03-15T02:14:35.843Z,4.95
2018-03-15T02:17:38.978Z,4.96
2018-03-15T02:20:42.105Z,4.89
2018-03-15T02:23:45.246Z,4.89
2018-03-15T02:26:48.381Z,4.89
2018-03-15T02:29:51.533Z,4.85
2018-03-15T02:32:54.768Z,4.82
2018-03-15T02:35:57.959Z,4.83
2018-03-15T02:39:01.150Z,4.86
2018-03-15T02:42:04.387Z,4.84
2018-03-15T02:45:07.500Z,4.79
2018-03-15T02:48:10.643Z,4.85
2018-03-15T02:51:13.848Z,4.84
2018-03-15T02:54:17.020Z,4.78
2018-03-15T02:57:20.179Z,4.82
2018-03-15T03:00:23.430Z,4.81
2018-03-15T03:03:26.547Z,4.73
2018-03-15T03:06:29.689Z,4.62
2018-03-15T03:09:32.905Z,4.61
2018-03-15T03:12:36.123Z,4.61
2018-03-15T03:15:39.274Z,4.66
2018-03-15T03:18:42.435Z,4.56
2018-03-15T03:21:45.563Z,4.51
2018-03-15T03:24:48.788Z,4.52
2018-03-15T03:27:51.923Z,4.52
2018-03-15T03:30:55.149Z,4.50
2018-03-15T03:33:58.340Z,4.57
2018-03-15T03:37:01.646Z,4.53
2018-03-15T03:40:04.863Z,4.55
2018-03-15T03:43:08.050Z,4.50
2018-03-15T03:46:11.342Z,4.48
2018-03-15T03:49:14.526Z,4.50
2018-03-15T03:52:17.667Z,4.51
2018-03-15T03:55:20.907Z,4.49
2018-03-15T03:58:24.039Z,4.56
2018-03-15T04:01:27.206Z,4.54
2018-03-15T04:04:30.341Z,4.60
2018-03-15T04:07:33.463Z,4.54
2018-03-15T04:10:36.626Z,4.50
2018-03-15T04:13:39.751Z,4.50
2018-03-15T04:16:42.883Z,4.57
2018-03-15T04:19:46.011Z,4.56
2018-03-15T04:22:49.160Z,4.54
2018-03-15T04:25:52.278Z,4.59
2018-03-15T04:28:55.441Z,4.55
2018-03-15T04:31:58.649Z,4.57
2018-03-15T04:35:01.862Z,4.54
2018-03-15T04:38:05.108Z,4.56
2018-03-15T04:41:08.266Z,4.56
2018-03-15T04:44:11.440Z,4.52
2018-03-15T04:47:14.628Z,4.54
2018-03-15T04:50:17.815Z,4.49
2018-03-15T04:53:20.959Z,4.49
2018-03-15T04:56:24.113Z,4.46
2018-03-15T04:59:27.290Z,4.53
2018-03-15T05:02:30.485Z,4.51
2018-03-15T05:05:33.698Z,4.47
2018-03-15T05:08:36.894Z,4.48
2018-03-15T05:11:40.030Z,4.46
2018-03-15T05:14:43.278Z,4.50
2018-03-15T05:17:46.414Z,4.53
2018-03-15T05:20:49.534Z,4.55
2018-03-15T05:23:52.848Z,4.58
2018-03-15T05:26:56.190Z,4.56
2018-03-15T05:29:59.454Z,4.58
2018-03-15T05:33:02.672Z,4.62
2018-03-15T05:36:05.873Z,4.58
2018-03-15T05:39:09.183Z,4.58
2018-03-15T05:42:12.446Z,4.61
2018-03-15T05:45:15.751Z,4.65
2018-03-15T05:48:19.032Z,4.60
2018-03-15T05:51:22.414Z,4.56
2018-03-15T05:54:25.623Z,4.64
2018-03-15T05:57:28.929Z,4.68
2018-03-15T06:00:32.222Z,4.71
2018-03-15T06:03:35.535Z,4.72
2018-03-15T06:06:38.826Z,4.75
2018-03-15T06:09:42.238Z,4.76
2018-03-15T06:12:45.557Z,4.84
2018-03-15T06:15:48.823Z,4.88
2018-03-15T06:18:53.031Z,4.88
2018-03-15T06:21:56.266Z,4.93
2018-03-15T06:24:59.418Z,4.94
2018-03-15T06:28:02.618Z,4.97
2018-03-15T06:31:05.830Z,5.01
2018-03-15T06:34:09.011Z,5.01
2018-03-15T06:37:12.196Z,5.03
2018-03-15T06:40:15.476Z,5.12
2018-03-15T06:43:18.694Z,5.12
2018-03-15T06:46:21.897Z,5.22
2018-03-15T06:49:25.062Z,5.24
2018-03-15T06:52:28.290Z,5.32
2018-03-15T06:55:31.471Z,5.34
2018-03-15T06:58:34.583Z,5.38
2018-03-15T07:01:37.949Z,5.46
2018-03-15T07:04:41.112Z,5.50
2018-03-15T07:07:44.305Z,5.51
2018-03-15T07:10:47.455Z,5.52
2018-03-15T07:13:50.672Z,5.60
2018-03-15T07:16:53.842Z,5.64
2018-03-15T07:19:57.175Z,5.69
2018-03-15T07:23:00.360Z,5.76
2018-03-15T07:26:03.541Z,5.79
2018-03-15T07:29:06.687Z,5.81
2018-03-15T07:32:09.927Z,5.92
2018-03-15T07:35:13.115Z,5.97
2018-03-15T07:38:16.378Z,6.00
2018-03-15T07:41:19.614Z,6.01
2018-03-15T07:44:22.835Z,6.13
2018-03-15T07:47:26.007Z,6.22
2018-03-15T07:50:29.302Z,6.30
2018-03-15T07:53:32.485Z,6.36
2018-03-15T07:56:35.651Z,6.40
2018-03-15T07:59:38.787Z,6.52
2018-03-15T08:02:41.962Z,6.52
2018-03-15T08:05:45.184Z,6.68
2018-03-15T08:08:48.363Z,6.68
2018-03-15T08:11:51.545Z,6.76
2018-03-15T08:14:54.722Z,6.79
2018-03-15T08:17:57.867Z,6.83
2018-03-15T08:21:01.050Z,6.88
2018-03-15T08:24:04.229Z,6.98
2018-03-15T08:27:07.430Z,7.05
2018-03-15T08:30:10.639Z,7.13
2018-03-15T08:33:13.830Z,7.19
2018-03-15T08:36:17.032Z,7.20
2018-03-15T08:39:20.203Z,7.28
2018-03-15T08:42:23.352Z,7.39
2018-03-15T08:45:26.531Z,7.42
2018-03-15T08:48:29.706Z,7.40
2018-03-15T08:51:32.889Z,7.53
2018-03-15T08:54:36.039Z,7.51
2018-03-15T08:57:39.170Z,7.54
2018-03-15T09:00:42.362Z,7.56
2018-03-15T09:03:45.566Z,7.63
2018-03-15T09:06:48.769Z,7.67
2018-03-15T09:09:51.950Z,7.79
2018-03-15T09:12:55.086Z,7.82
2018-03-15T09:15:58.261Z,7.98
2018-03-15T09:19:01.436Z,8.10
2018-03-15T09:22:04.658Z,8.22
2018-03-15T09:25:07.834Z,8.28
2018-03-15T09:28:11.025Z,8.41
2018-03-15T09:31:14.214Z,8.47
2018-03-15T09:34:17.429Z,8.58
2018-03-15T09:37:20.630Z,8.57
2018-03-15T09:40:23.815Z,8.63
2018-03-15T09:43:27.030Z,8.72
2018-03-15T09:46:30.190Z,8.81
2018-03-15T09:49:33.391Z,8.96
2018-03-15T09:52:36.540Z,9.06
2018-03-15T09:55:39.698Z,9.21
2018-03-15T09:58:42.842Z,9.23
2018-03-15T10:01:45.983Z,9.27
2018-03-15T10:04:49.158Z,9.26
2018-03-15T10:07:52.289Z,9.27
2018-03-15T10:10:55.402Z,9.44
2018-03-15T10:13:58.532Z,9.50
2018-03-15T10:17:01.773Z,9.54
2018-03-15T10:20:04.854Z,9.59
2018-03-15T10:23:07.986Z,9.71
2018-03-15T10:26:11.121Z,9.83
2018-03-15T10:29:14.308Z,9.90
2018-03-15T10:32:17.557Z,9.93
2018-03-15T10:35:25.751Z,9.92
2018-03-15T10:38:28.991Z,10.01
2018-03-15T10:41:32.182Z,10.09
2018-03-15T10:44:36.376Z,10.12
2018-03-15T10:47:39.597Z,10.19
2018-03-15T10:50:42.788Z,10.26
2018-03-15T10:53:45.994Z,10.27
2018-03-15T10:56:49.657Z,10.33
2018-03-15T10:59:52.936Z,10.41
2018-03-15T11:02:56.081Z,10.50
2018-03-15T11:06:03.449Z,10.60
2018-03-15T11:09:10.862Z,10.74
2018-03-15T11:12:14.069Z,10.80
2018-03-15T11:15:17.361Z,10.95
2018-03-15T11:18:21.493Z,11.07
2018-03-15T11:21:24.640Z,11.21
2018-03-15T11:24:27.790Z,11.35
2018-03-15T11:27:31.128Z,11.46
2018-03-15T11:30:34.276Z,11.80
2018-03-15T11:33:37.446Z,12.00
2018-03-15T11:36:40.647Z,12.25
2018-03-15T11:39:43.859Z,12.56
2018-03-15T11:42:47.035Z,12.82
2018-03-15T11:45:51.294Z,12.94
2018-03-15T11:48:54.461Z,12.97
2018-03-15T11:51:57.599Z,13.02
2018-03-15T11:55:00.849Z,13.17
2018-03-15T11:58:04.060Z,13.48
2018-03-15T12:01:07.315Z,13.81
2018-03-15T12:04:10.561Z,13.77
2018-03-15T12:07:13.752Z,13.99
2018-03-15T12:10:16.911Z,14.21
2018-03-15T12:13:20.547Z,14.21
2018-03-15T12:16:23.725Z,14.18
2018-03-15T12:19:27.005Z,14.33
2018-03-15T12:22:30.205Z,14.65
2018-03-15T12:25:34.846Z,14.59
2018-03-15T12:28:38.061Z,14.68
2018-03-15T12:31:41.323Z,14.77
2018-03-15T12:34:44.601Z,14.78
2018-03-15T12:37:47.826Z,14.88
2018-03-15T12:40:50.989Z,14.82
2018-03-15T12:43:54.334Z,14.87
2018-03-15T12:46:57.742Z,14.44
2018-03-15T12:50:00.894Z,14.23
2018-03-15T12:53:04.095Z,13.96
2018-03-15T12:56:08.202Z,13.78
2018-03-15T12:59:11.317Z,13.75
2018-03-15T13:02:14.505Z,13.69
2018-03-15T13:05:17.635Z,13.72
2018-03-15T13:08:20.790Z,13.51
2018-03-15T13:11:23.994Z,13.48
2018-03-15T13:14:27.201Z,13.31
2018-03-15T13:17:30.319Z,13.42
2018-03-15T13:20:33.472Z,13.31
2018-03-15T13:23:37.937Z,13.34
2018-03-15T13:26:41.114Z,13.29
2018-03-15T13:29:44.263Z,13.34
2018-03-15T13:32:47.479Z,13.30
2018-03-15T13:35:50.867Z,13.34
2018-03-15T13:38:54.139Z,13.31
2018-03-15T13:41:57.275Z,13.29
2018-03-15T13:45:00.478Z,13.20
2018-03-15T13:48:03.721Z,13.23
2018-03-15T13:51:07.306Z,13.22
2018-03-15T13:54:10.457Z,13.25
2018-03-15T13:57:13.641Z,13.26
2018-03-15T14:00:16.866Z,13.17
2018-03-15T14:03:20.344Z,13.17
2018-03-15T14:06:23.539Z,13.15
2018-03-15T14:09:26.730Z,13.10
2018-03-15T14:12:29.941Z,13.16
2018-03-15T14:15:33.150Z,13.07
2018-03-15T14:18:36.318Z,13.09
2018-03-15T14:21:39.466Z,13.13
2018-03-15T14:24:43.024Z,13.10
2018-03-15T14:27:46.222Z,13.10
2018-03-15T14:30:49.455Z,13.13
2018-03-15T14:33:52.618Z,13.12
2018-03-15T14:36:55.773Z,13.13
2018-03-15T14:39:58.998Z,13.12
2018-03-15T14:43:02.196Z,13.17
2018-03-15T14:46:05.389Z,13.17
2018-03-15T14:49:09.609Z,13.22
2018-03-15T14:52:12.803Z,13.21
2018-03-15T14:55:16.003Z,13.19
2018-03-15T14:58:19.182Z,13.19
2018-03-15T15:01:22.398Z,13.19
2018-03-15T15:04:25.802Z,13.17
2018-03-15T15:07:29.107Z,13.17
2018-03-15T15:10:32.234Z,13.13
2018-03-15T15:13:35.363Z,13.07
2018-03-15T15:16:39.491Z,13.07
2018-03-15T15:19:42.686Z,13.08
2018-03-15T15:22:45.893Z,13.04
2018-03-15T15:25:49.102Z,13.06
2018-03-15T15:28:52.303Z,13.09
2018-03-15T15:31:55.534Z,13.06
2018-03-15T15:34:58.750Z,13.06
2018-03-15T15:38:01.956Z,13.03
2018-03-15T15:41:05.187Z,12.98
2018-03-15T15:44:09.482Z,12.91
2018-03-15T15:47:12.658Z,12.93
2018-03-15T15:50:15.962Z,12.88
2018-03-15T15:53:19.162Z,12.84
2018-03-15T15:56:22.354Z,12.86
2018-03-15T15:59:25.556Z,12.87
2018-03-15T16:02:28.743Z,12.81
2018-03-15T16:05:31.956Z,12.83
2018-03-15T16:08:35.140Z,12.84
2018-03-15T16:11:39.447Z,12.86
2018-03-15T16:14:42.659Z,12.79
2018-03-15T16:17:45.922Z,12.73
2018-03-15T16:20:49.151Z,12.70
2018-03-15T16:23:52.337Z,12.68
2018-03-15T16:26:55.567Z,12.64
2018-03-15T16:29:58.730Z,12.65
2018-03-15T16:33:01.903Z,12.68
2018-03-15T16:36:05.130Z,12.61
2018-03-15T16:39:09.058Z,12.70
2018-03-15T16:42:12.231Z,12.78
2018-03-15T16:45:15.414Z,12.85
2018-03-15T16:48:18.624Z,12.91
2018-03-15T16:51:21.811Z,12.84
2018-03-15T16:54:25.035Z,12.71
2018-03-15T16:57:28.272Z,12.64
2018-03-15T17:00:31.616Z,12.54
2018-03-15T17:03:34.794Z,12.45
2018-03-15T17:06:38.435Z,12.40
2018-03-15T17:09:41.600Z,12.32
2018-03-15T17:12:44.729Z,12.21
2018-03-15T17:15:47.911Z,12.09
2018-03-15T17:18:51.195Z,11.93
2018-03-15T17:21:54.440Z,11.93
2018-03-15T17:24:58.042Z,11.89
2018-03-15T17:28:01.226Z,11.99
2018-03-15T17:31:04.508Z,11.85
2018-03-15T17:34:08.674Z,11.60
2018-03-15T17:37:12.033Z,11.52
2018-03-15T17:40:15.341Z,11.71
2018-03-15T17:43:18.519Z,11.73
2018-03-15T17:46:21.796Z,11.88
2018-03-15T17:49:25.567Z,11.91
2018-03-15T17:52:28.756Z,11.93
2018-03-15T17:55:32.022Z,12.02
2018-03-15T17:58:35.120Z,11.89
2018-03-15T18:01:38.794Z,11.80
2018-03-15T18:04:42.034Z,11.82
2018-03-15T18:07:45.295Z,11.85
2018-03-15T18:10:48.466Z,11.80
2018-03-15T18:13:51.665Z,11.75
2018-03-15T18:16:55.321Z,11.70
2018-03-15T18:19:58.524Z,11.63
2018-03-15T18:23:01.662Z,11.61
2018-03-15T18:26:04.930Z,11.55
2018-03-15T18:29:08.163Z,11.42
2018-03-15T18:32:11.345Z,11.46
2018-03-15T18:35:14.544Z,11.42
2018-03-15T18:38:17.743Z,11.41
2018-03-15T18:41:20.894Z,11.40
2018-03-15T18:44:24.052Z,11.42
2018-03-15T18:47:27.270Z,11.40
2018-03-15T18:50:30.586Z,11.38
2018-03-15T18:53:33.740Z,11.28
2018-03-15T18:56:36.911Z,11.32
2018-03-15T18:59:40.114Z,11.27
2018-03-15T19:02:43.301Z,11.22
2018-03-15T19:05:46.483Z,11.24
2018-03-15T19:08:49.627Z,11.05
2018-03-15T19:11:52.779Z,10.90
2018-03-15T19:14:55.984Z,10.86
2018-03-15T19:17:59.176Z,10.73
2018-03-15T19:21:02.367Z,10.73
2018-03-15T19:24:05.593Z,10.66
2018-03-15T19:27:08.924Z,10.39
2018-03-15T19:30:12.155Z,10.31
2018-03-15T19:33:15.362Z,10.27
2018-03-15T19:36:18.546Z,10.19
2018-03-15T19:39:21.797Z,10.14
2018-03-15T19:42:25.051Z,10.01
2018-03-15T19:45:28.282Z,9.83
2018-03-15T19:48:31.414Z,9.80
2018-03-15T19:51:34.713Z,9.73
2018-03-15T19:54:38.543Z,9.78
2018-03-15T19:57:41.690Z,9.79
2018-03-15T20:00:44.846Z,9.73
2018-03-15T20:03:48.532Z,9.61
2018-03-15T20:06:51.806Z,9.54
2018-03-15T20:09:54.926Z,9.55
2018-03-15T20:12:58.578Z,9.52
2018-03-15T20:16:01.751Z,9.45
2018-03-15T20:19:09.205Z,9.43
2018-03-15T20:22:12.410Z,9.41
2018-03-15T20:25:15.620Z,9.41
2018-03-15T20:28:49.466Z,9.37
2018-03-15T20:31:52.717Z,9.29
2018-03-15T20:34:55.906Z,9.26
2018-03-15T20:37:59.289Z,9.19
2018-03-15T20:41:36.681Z,9.18
2018-03-15T20:44:39.899Z,9.17
2018-03-15T20:48:45.925Z,9.14
2018-03-15T20:51:49.193Z,9.07
2018-03-15T20:54:52.373Z,9.04
2018-03-15T20:57:55.798Z,9.04
2018-03-15T21:00:59.057Z,8.97
2018-03-15T21:04:02.299Z,8.94
2018-03-15T21:07:05.460Z,8.88
2018-03-15T21:10:08.682Z,8.88
2018-03-15T21:13:11.862Z,8.89
2018-03-15T21:16:15.102Z,8.85
2018-03-15T21:19:18.351Z,8.85
2018-03-15T21:22:21.795Z,8.88
2018-03-15T21:25:25.046Z,8.86
2018-03-15T21:28:28.334Z,8.82
2018-03-15T21:31:31.514Z,8.81
2018-03-15T21:34:34.718Z,8.79
2018-03-15T21:37:37.886Z,8.74
2018-03-15T21:40:41.145Z,8.82
2018-03-15T21:43:44.273Z,8.81
2018-03-15T21:46:47.497Z,8.78
2018-03-15T21:49:50.703Z,8.82
2018-03-15T21:52:53.887Z,8.82
2018-03-15T21:55:57.081Z,8.82
2018-03-15T21:59:00.266Z,8.80
2018-03-15T22:02:03.481Z,8.71
2018-03-15T22:05:06.701Z,8.72
2018-03-15T22:08:10.174Z,8.73
2018-03-15T22:11:43.536Z,8.66
2018-03-15T22:14:49.914Z,8.63
2018-03-15T22:17:55.443Z,8.66
2018-03-15T22:20:58.676Z,8.65
2018-03-15T22:24:01.890Z,8.61
2018-03-15T22:27:05.688Z,8.66
2018-03-15T22:30:08.892Z,8.66
2018-03-15T22:33:39.614Z,8.75
2018-03-15T22:48:39.959Z,8.90
2018-03-15T22:53:05.221Z,8.91
2018-03-15T22:56:27.820Z,8.92
2018-03-15T23:00:11.279Z,8.90
2018-03-15T23:07:09.598Z,8.98
2018-03-15T23:10:38.004Z,8.95
2018-03-15T23:17:50.912Z,9.09
2018-03-15T23:21:20.505Z,9.05
2018-03-15T23:25:00.139Z,8.98
2018-03-15T23:29:33.022Z,8.99
2018-03-15T23:33:08.831Z,9.00
2018-03-15T23:47:58.435Z,8.94
2018-03-15T23:58:37.125Z,9.01
